Terminal Aerodrome Forecast
Issued by NWS Amarillo, TX

Home | Current Version | Previous Version | Text Only | Print | Product List | Glossary On
Versions: 1 2 3 4 5 6 7 8 9 10 11 12 13 14 15 16 17 18 19 20 21 22 23 24
000
FTUS44 KAMA 230500
TAFAMA
TAF
KAMA 230520Z 2306/2406 16018G28KT P6SM FEW100
     FM231400 20026G36KT P6SM SCT080 SCT120
     FM240100 23018KT P6SM FEW100=

USA.gov is the U.S. government's official web portal to all federal, state and local government web resources and services.